Time;durP1;ratioP1;P1;durP2;ratioP2;P2;SDS_P1;SDS_P2;PMS_P1;PMS_P2;Temp;Humidity;BMP_temperature;BMP_pressure;BME280_temperature;BME280_humidity;BME280_pressure;Samples;Min_cycle;Max_cycle;Signal;HPM_P1;HPM_P2
2022/01/19 00:01:27;;;;;;;;;;;;;;;-3.19;62.93;100961.34;4993359;28;1437;-56
2022/01/19 00:03:54;;;;;;;;;;;;;;;-2.99;62.20;100973.91;5011258;28;924;-56
2022/01/19 00:06:21;;;;;;;;;;;;;;;-3.11;62.64;100976.19;5011045;28;1977;-56
2022/01/19 00:08:48;;;;;;;;;;;;;;;-3.17;62.81;100982.72;5011237;28;900;-55
2022/01/19 00:11:14;;;;;;;;;;;;;;;-3.32;62.56;101000.63;4993655;28;1416;-56
2022/01/19 00:13:40;;;;;;;;;;;;;;;-3.69;63.28;101001.13;5011148;28;852;-56
2022/01/19 00:16:07;;;;;;;;;;;;;;;-3.89;64.03;101010.09;5011081;28;813;-56
2022/01/19 00:18:34;;;;;;;;;;;;;;;-3.77;63.70;101015.22;5013473;28;904;-56
2022/01/19 00:21:00;;;;;;;;;;;;;;;-3.73;63.12;101027.09;5014541;28;1020;-56
2022/01/19 00:23:27;;;;;;;;;;;;;;;-3.94;63.34;101032.56;5014623;28;821;-55
2022/01/19 00:25:55;;;;;;;;;;;;;;;-3.97;63.79;101032.28;5014418;28;1886;-56
2022/01/19 00:28:22;;;;;;;;;;;;;;;-3.92;64.29;101040.38;4996837;28;889;-55
2022/01/19 00:30:48;;;;;;;;;;;;;;;-3.75;63.71;101034.66;4996768;28;763;-55
2022/01/19 00:33:18;;;;;;;;;;;;;;;-3.69;63.18;101038.97;5014303;28;820;-55
2022/01/19 00:35:45;;;;;;;;;;;;;;;-3.86;63.62;101046.56;5014595;28;1023;-55
2022/01/19 00:38:11;;;;;;;;;;;;;;;-4.16;64.02;101043.69;5014528;28;1008;-56
2022/01/19 00:40:38;;;;;;;;;;;;;;;-4.30;65.13;101034.53;5014167;28;865;-55
2022/01/19 00:43:05;;;;;;;;;;;;;;;-4.15;64.85;101037.19;5014131;28;900;-55
2022/01/19 00:45:31;;;;;;;;;;;;;;;-4.38;65.18;101043.97;5014052;28;1878;-55
2022/01/19 00:47:58;;;;;;;;;;;;;;;-4.60;66.08;101048.88;5014179;28;852;-56
2022/01/19 00:50:26;;;;;;;;;;;;;;;-4.74;66.60;101040.50;5014057;28;888;-55
2022/01/19 00:52:53;;;;;;;;;;;;;;;-4.84;67.24;101045.88;5014094;28;944;-56
2022/01/19 00:55:21;;;;;;;;;;;;;;;-5.00;67.70;101050.47;5013988;28;849;-56
2022/01/19 00:57:48;;;;;;;;;;;;;;;-5.27;67.64;101042.59;5013778;28;976;-56
2022/01/19 01:00:18;;;;;;;;;;;;;;;-5.50;68.37;101044.69;5013591;28;1290;-56
2022/01/19 01:02:44;;;;;;;;;;;;;;;-5.70;68.66;101041.91;5014105;28;821;-55
2022/01/19 01:05:11;;;;;;;;;;;;;;;-5.82;70.28;101042.94;5013664;28;1906;-55
2022/01/19 01:07:38;;;;;;;;;;;;;;;-5.67;70.64;101036.00;5013652;28;887;-55
2022/01/19 01:10:06;;;;;;;;;;;;;;;-5.63;71.25;101032.53;5013660;28;931;-55
2022/01/19 01:12:48;;;;;;;;;;;;;;;-5.46;70.74;101035.00;5013500;28;813;-55
2022/01/19 01:18:21;;;;;;;;;;;;;;;-5.52;71.50;101033.38;4982574;28;1344;-55
2022/01/19 01:20:49;;;;;;;;;;;;;;;-5.63;72.00;101037.91;5013524;28;849;-55
2022/01/19 01:23:16;;;;;;;;;;;;;;;-5.69;73.11;101044.34;5013261;28;886;-55
2022/01/19 01:25:43;;;;;;;;;;;;;;;-5.61;73.61;101061.88;5013193;28;1882;-55
2022/01/19 01:28:09;;;;;;;;;;;;;;;-5.62;73.86;101069.16;5013240;28;833;-55
2022/01/19 01:30:36;;;;;;;;;;;;;;;-5.66;73.92;101061.88;5013283;28;817;-56
2022/01/19 01:33:03;;;;;;;;;;;;;;;-5.45;73.21;101065.44;5013243;28;899;-56
2022/01/19 01:35:30;;;;;;;;;;;;;;;-5.39;73.04;101073.28;5013533;28;932;-56
2022/01/19 01:37:57;;;;;;;;;;;;;;;-5.33;73.09;101071.44;5013085;28;868;-56
2022/01/19 01:40:25;;;;;;;;;;;;;;;-5.33;72.68;101068.72;5013207;28;876;-55
2022/01/19 01:42:52;;;;;;;;;;;;;;;-5.50;73.00;101078.88;5012937;28;881;-55
2022/01/19 01:45:24;;;;;;;;;;;;;;;-5.68;73.42;101074.78;5012964;28;1967;-55
2022/01/19 01:47:58;;;;;;;;;;;;;;;-5.77;74.28;101072.59;5012898;28;939;-55
2022/01/19 01:55:55;;;;;;;;;;;;;;;-5.47;73.54;101075.69;5013005;28;1345;-55
2022/01/19 01:58:21;;;;;;;;;;;;;;;-5.42;73.24;101076.53;5012836;28;828;-55
2022/01/19 02:00:47;;;;;;;;;;;;;;;-5.58;73.03;101081.03;5012499;28;1293;-55
2022/01/19 02:03:14;;;;;;;;;;;;;;;-5.69;73.92;101075.88;5012752;28;852;-55
2022/01/19 02:05:54;;;;;;;;;;;;;;;-5.80;74.51;101069.63;5012556;28;1970;-55
2022/01/19 02:08:23;;;;;;;;;;;;;;;-5.80;74.89;101065.03;5012484;28;876;-56
2022/01/19 02:15:49;;;;;;;;;;;;;;;-5.66;74.59;101069.94;5012605;28;868;-55
2022/01/19 02:16:46;;;;;;;;;;;;;;;-5.51;73.57;101058.41;5012263;28;690;-55
2022/01/19 02:22:00;;;;;;;;;;;;;;;-5.32;73.22;101059.56;5012868;28;695;-55
2022/01/19 02:24:43;;;;;;;;;;;;;;;-5.39;72.47;101059.00;5012386;28;874;-55
2022/01/19 02:28:59;;;;;;;;;;;;;;;-5.49;72.78;101057.06;5012063;28;1940;-56
2022/01/19 02:41:00;;;;;;;;;;;;;;;-5.84;74.59;101047.78;4961423;28;1207;-55
2022/01/19 02:43:28;;;;;;;;;;;;;;;-5.82;74.76;101056.41;5012044;28;825;-55
2022/01/19 02:51:25;;;;;;;;;;;;;;;-5.69;74.86;101059.72;5012296;28;675;-56
2022/01/19 02:53:51;;;;;;;;;;;;;;;-5.71;74.46;101072.63;5011916;28;817;-56
2022/01/19 02:56:25;;;;;;;;;;;;;;;-5.76;74.54;101073.38;5011911;28;960;-55
2022/01/19 02:58:56;;;;;;;;;;;;;;;-5.81;75.07;101071.47;5011570;28;849;-56
2022/01/19 03:09:28;;;;;;;;;;;;;;;-6.17;76.60;101079.38;5011724;28;660;-55
2022/01/19 03:11:55;;;;;;;;;;;;;;;-6.17;76.60;101075.88;5011738;28;845;-56
2022/01/19 03:14:22;;;;;;;;;;;;;;;-6.16;76.71;101072.13;5011494;28;950;-55
2022/01/19 03:16:48;;;;;;;;;;;;;;;-6.07;76.38;101067.88;5011689;28;872;-56
2022/01/19 03:19:14;;;;;;;;;;;;;;;-5.95;75.72;101059.63;5011637;28;813;-56
2022/01/19 03:21:41;;;;;;;;;;;;;;;-5.92;76.02;101064.44;5011549;28;892;-56
2022/01/19 03:24:08;;;;;;;;;;;;;;;-5.99;76.09;101062.00;4993956;28;850;-56
2022/01/19 03:26:34;;;;;;;;;;;;;;;-6.06;76.34;101057.91;5011741;28;1953;-56
2022/01/19 03:29:00;;;;;;;;;;;;;;;-6.08;76.77;101063.59;5011531;28;896;-56
2022/01/19 03:31:27;;;;;;;;;;;;;;;-6.17;76.62;101063.25;5011475;28;860;-56
2022/01/19 03:33:53;;;;;;;;;;;;;;;-6.23;77.19;101074.22;5011465;28;1118;-56
2022/01/19 03:36:20;;;;;;;;;;;;;;;-6.22;77.31;101067.78;5011442;28;869;-56
2022/01/19 03:38:47;;;;;;;;;;;;;;;-6.24;77.77;101072.63;5011454;28;907;-56
2022/01/19 03:41:13;;;;;;;;;;;;;;;-6.32;77.34;101060.44;5011442;28;864;-56
2022/01/19 03:43:40;;;;;;;;;;;;;;;-6.29;77.26;101064.50;5011379;28;892;-56
2022/01/19 03:46:13;;;;;;;;;;;;;;;-6.21;77.38;101067.53;5011095;28;1886;-56
2022/01/19 03:48:51;;;;;;;;;;;;;;;-6.11;77.64;101076.75;5011413;28;912;-55
2022/01/19 03:51:17;;;;;;;;;;;;;;;-5.88;77.59;101086.28;5011355;28;876;-55
2022/01/19 03:53:43;;;;;;;;;;;;;;;-5.55;76.85;101085.06;5014362;28;829;-56
2022/01/19 03:56:10;;;;;;;;;;;;;;;-5.27;76.34;101083.84;5014932;28;889;-56
2022/01/19 03:58:37;;;;;;;;;;;;;;;-5.06;75.65;101083.88;5015063;28;836;-56
2022/01/19 04:01:05;;;;;;;;;;;;;;;-4.90;74.47;101088.22;5014586;28;1418;-56
2022/01/19 04:08:49;;;;;;;;;;;;;;;-4.79;72.07;101097.16;5014809;28;694;-56
2022/01/19 04:11:17;;;;;;;;;;;;;;;-4.73;71.75;101096.88;5014862;28;888;-56
2022/01/19 04:16:22;;;;;;;;;;;;;;;-4.95;71.56;101102.53;5014709;28;742;-56
2022/01/19 04:18:51;;;;;;;;;;;;;;;-5.07;71.79;101110.03;5014631;28;955;-56
2022/01/19 04:21:18;;;;;;;;;;;;;;;-5.01;71.80;101111.69;5014705;28;852;-56
2022/01/19 04:23:44;;;;;;;;;;;;;;;-4.98;71.71;101115.72;5014575;28;971;-56
2022/01/19 04:26:11;;;;;;;;;;;;;;;-5.04;71.67;101119.47;5014456;28;1979;-56
2022/01/19 04:28:37;;;;;;;;;;;;;;;-5.07;71.78;101125.41;5014520;28;1052;-56
2022/01/19 04:31:04;;;;;;;;;;;;;;;-5.16;72.14;101125.13;5014310;28;920;-56
2022/01/19 04:33:31;;;;;;;;;;;;;;;-5.26;72.15;101120.50;5014360;28;892;-56
2022/01/19 04:36:18;;;;;;;;;;;;;;;-5.51;72.91;101125.78;5014744;28;1054;-56
2022/01/19 04:47:47;;;;;;;;;;;;;;;-6.37;76.20;101139.25;5014009;28;1886;-56
2022/01/19 05:03:15;;;;;;;;;;;;;;;-6.46;77.03;101177.66;5013975;28;672;-56
2022/01/19 05:05:52;;;;;;;;;;;;;;;-6.22;77.05;101168.19;5013676;28;1969;-56
2022/01/19 05:08:51;;;;;;;;;;;;;;;-5.86;76.57;101163.03;5013633;28;940;-56
2022/01/19 05:13:51;;;;;;;;;;;;;;;-5.70;75.45;101168.50;5013841;28;631;-56
2022/01/19 05:16:21;;;;;;;;;;;;;;;-5.67;74.76;101146.44;5013571;28;987;-56
2022/01/19 05:18:47;;;;;;;;;;;;;;;-5.61;74.39;101158.84;4995798;28;1618;-56
2022/01/19 05:21:14;;;;;;;;;;;;;;;-5.63;74.70;101159.13;5013856;28;813;-56
2022/01/19 05:23:41;;;;;;;;;;;;;;;-5.64;74.49;101168.28;5013330;28;933;-56
2022/01/19 05:26:07;;;;;;;;;;;;;;;-5.73;74.76;101167.16;5013383;28;1906;-56
2022/01/19 05:28:34;;;;;;;;;;;;;;;-5.85;74.79;101182.69;5013390;28;825;-55
2022/01/19 05:30:59;;;;;;;;;;;;;;;-5.94;75.10;101190.44;5013317;28;912;-56
2022/01/19 05:33:26;;;;;;;;;;;;;;;-6.08;75.18;101189.28;5013315;28;876;-56
2022/01/19 05:35:52;;;;;;;;;;;;;;;-6.22;75.95;101202.34;5013754;28;1094;-56
2022/01/19 05:38:19;;;;;;;;;;;;;;;-6.23;76.38;101198.03;5013374;28;886;-56
2022/01/19 05:40:45;;;;;;;;;;;;;;;-6.20;76.43;101195.66;5013557;28;881;-56
2022/01/19 05:43:12;;;;;;;;;;;;;;;-6.11;76.40;101190.59;5013139;28;828;-56
2022/01/19 05:45:38;;;;;;;;;;;;;;;-5.95;76.47;101188.84;5013017;28;1886;-56
2022/01/19 05:48:07;;;;;;;;;;;;;;;-5.82;76.24;101193.75;5013158;28;904;-56
2022/01/19 05:50:34;;;;;;;;;;;;;;;-5.61;75.67;101183.94;5013249;28;824;-56
2022/01/19 05:53:01;;;;;;;;;;;;;;;-5.44;74.82;101191.00;5013165;28;927;-57
2022/01/19 05:55:27;;;;;;;;;;;;;;;-5.38;74.49;101182.69;5013074;28;899;-57
2022/01/19 05:57:54;;;;;;;;;;;;;;;-5.21;74.24;101195.97;5013528;28;816;-56
2022/01/19 06:00:20;;;;;;;;;;;;;;;-5.08;73.84;101197.38;5012816;28;1431;-57
2022/01/19 06:02:48;;;;;;;;;;;;;;;-4.90;73.27;101195.31;5013186;28;829;-56
2022/01/19 06:05:14;;;;;;;;;;;;;;;-4.68;73.08;101195.09;5012984;28;1910;-56
2022/01/19 06:07:44;;;;;;;;;;;;;;;-4.49;72.44;101201.59;5012591;28;919;-56
2022/01/19 06:10:12;;;;;;;;;;;;;;;-4.38;71.71;101200.53;5012735;28;939;-56
2022/01/19 06:12:41;;;;;;;;;;;;;;;-4.16;70.96;101216.50;5012368;28;1275;-56
2022/01/19 06:15:07;;;;;;;;;;;;;;;-3.96;69.95;101223.00;4994220;28;940;-56
2022/01/19 06:17:34;;;;;;;;;;;;;;;-3.67;69.39;101219.72;5012580;28;817;-56
2022/01/19 06:20:01;;;;;;;;;;;;;;;-3.46;68.84;101228.63;4994944;28;852;-56
2022/01/19 06:22:26;;;;;;;;;;;;;;;-3.44;68.83;101229.16;5012389;28;864;-56
2022/01/19 06:24:53;;;;;;;;;;;;;;;-3.13;67.86;101228.00;5012457;28;868;-56
2022/01/19 06:27:19;;;;;;;;;;;;;;;-2.62;66.51;101234.28;5012372;28;2237;-56
2022/01/19 06:29:46;;;;;;;;;;;;;;;-2.36;65.48;101232.22;5012391;28;964;-56
2022/01/19 06:32:12;;;;;;;;;;;;;;;-2.11;65.03;101247.50;5012578;28;845;-56
2022/01/19 06:34:39;;;;;;;;;;;;;;;-1.97;63.66;101244.97;5012952;28;900;-56
2022/01/19 06:37:06;;;;;;;;;;;;;;;-1.98;64.35;101254.19;5012475;28;836;-56
2022/01/19 06:39:32;;;;;;;;;;;;;;;-1.59;64.32;101250.63;5012125;28;821;-56
2022/01/19 06:41:59;;;;;;;;;;;;;;;-1.16;63.89;101256.16;5012019;28;825;-56
2022/01/19 06:44:25;;;;;;;;;;;;;;;-0.69;62.94;101255.31;5012067;28;895;-56
2022/01/19 06:46:52;;;;;;;;;;;;;;;-0.55;61.96;101257.34;5011800;28;1914;-56
2022/01/19 06:49:18;;;;;;;;;;;;;;;-0.68;61.09;101256.94;5011949;28;911;-56
2022/01/19 06:51:45;;;;;;;;;;;;;;;-0.71;60.52;101265.66;5011921;28;813;-56
2022/01/19 06:54:11;;;;;;;;;;;;;;;-0.79;59.84;101271.75;5011900;28;897;-56
2022/01/19 06:56:38;;;;;;;;;;;;;;;-1.07;60.20;101263.38;5011903;28;904;-56
2022/01/19 06:59:05;;;;;;;;;;;;;;;-1.08;60.88;101255.53;5011773;28;825;-56
2022/01/19 07:01:33;;;;;;;;;;;;;;;-1.03;60.52;101258.97;4993924;28;1265;-55
2022/01/19 07:04:00;;;;;;;;;;;;;;;-0.98;60.18;101257.28;5011988;28;863;-55
2022/01/19 07:06:26;;;;;;;;;;;;;;;-0.90;60.26;101257.47;5011533;28;1914;-55
2022/01/19 07:08:53;;;;;;;;;;;;;;;-0.58;60.47;101256.00;5011776;28;817;-56
2022/01/19 07:11:19;;;;;;;;;;;;;;;-0.30;59.18;101251.56;5011460;28;896;-57
2022/01/19 07:13:46;;;;;;;;;;;;;;;-0.22;58.32;101258.22;5011858;28;876;-56
2022/01/19 07:16:16;;;;;;;;;;;;;;;0.08;58.34;101262.38;5011636;28;979;-56
2022/01/19 07:18:43;;;;;;;;;;;;;;;0.30;57.48;101253.63;5011607;28;983;-55
2022/01/19 07:21:10;;;;;;;;;;;;;;;0.75;57.15;101253.91;5011524;28;837;-56
2022/01/19 07:23:36;;;;;;;;;;;;;;;1.06;56.61;101250.59;5011502;28;881;-56
2022/01/19 07:26:03;;;;;;;;;;;;;;;1.32;55.24;101263.69;5011921;28;1886;-55
2022/01/19 07:28:29;;;;;;;;;;;;;;;1.67;54.47;101264.03;5015558;28;868;-57
2022/01/19 07:30:56;;;;;;;;;;;;;;;1.75;55.13;101258.66;5015581;28;821;-57
2022/01/19 07:33:23;;;;;;;;;;;;;;;1.83;54.49;101263.41;5015583;28;876;-56
2022/01/19 07:35:51;;;;;;;;;;;;;;;1.95;53.05;101260.13;5015743;28;930;-56
2022/01/19 07:38:18;;;;;;;;;;;;;;;2.01;53.23;101258.09;5015313;28;916;-56
2022/01/19 07:40:45;;;;;;;;;;;;;;;2.01;53.16;101256.16;5015255;28;836;-56
2022/01/19 07:43:11;;;;;;;;;;;;;;;2.14;53.68;101249.03;5015307;28;884;-56
2022/01/19 07:45:37;;;;;;;;;;;;;;;2.27;53.43;101247.34;5015247;28;1885;-55
2022/01/19 07:48:04;;;;;;;;;;;;;;;2.42;51.95;101237.97;5015282;28;856;-56
2022/01/19 07:50:31;;;;;;;;;;;;;;;2.29;52.00;101236.94;5015179;28;875;-56
2022/01/19 07:52:58;;;;;;;;;;;;;;;2.37;52.17;101228.00;5015213;28;892;-56
2022/01/19 07:55:25;;;;;;;;;;;;;;;2.31;50.58;101234.69;5015025;28;959;-56
2022/01/19 07:57:51;;;;;;;;;;;;;;;2.41;50.27;101228.16;5015011;28;923;-56
2022/01/19 08:00:19;;;;;;;;;;;;;;;1.87;50.64;101230.84;5014704;28;1355;-56
2022/01/19 08:02:45;;;;;;;;;;;;;;;1.86;50.38;101236.59;4997316;28;1621;-56
2022/01/19 08:05:12;;;;;;;;;;;;;;;2.08;50.54;101233.91;5014830;28;1907;-56
2022/01/19 08:07:39;;;;;;;;;;;;;;;2.04;50.29;101232.91;4997157;28;833;-56
2022/01/19 08:10:06;;;;;;;;;;;;;;;2.18;50.20;101230.94;5014577;28;869;-56
2022/01/19 08:12:32;;;;;;;;;;;;;;;2.11;49.78;101230.53;5014809;28;880;-56
2022/01/19 08:14:59;;;;;;;;;;;;;;;1.96;49.84;101225.47;5014758;28;845;-56
2022/01/19 08:17:29;;;;;;;;;;;;;;;1.59;49.95;101225.47;5014596;28;1277;-55
2022/01/19 08:19:56;;;;;;;;;;;;;;;1.39;50.31;101229.47;5014627;28;856;-56
2022/01/19 08:22:23;;;;;;;;;;;;;;;1.66;50.42;101224.25;5014648;28;816;-56
2022/01/19 08:24:49;;;;;;;;;;;;;;;1.41;50.08;101224.53;5014453;28;956;-56
2022/01/19 08:27:17;;;;;;;;;;;;;;;1.57;50.20;101227.72;5014225;28;1959;-56
2022/01/19 08:29:43;;;;;;;;;;;;;;;1.77;49.90;101228.34;5014249;28;983;-55
2022/01/19 08:32:10;;;;;;;;;;;;;;;1.73;50.89;101227.34;5014303;28;911;-58
2022/01/19 08:34:37;;;;;;;;;;;;;;;1.67;49.86;101228.63;5014485;28;1467;-57
2022/01/19 08:37:03;;;;;;;;;;;;;;;1.75;48.74;101231.41;5014382;28;840;-55
2022/01/19 08:39:30;;;;;;;;;;;;;;;1.88;49.09;101218.84;5013346;28;868;-58
2022/01/19 08:41:56;;;;;;;;;;;;;;;1.49;48.66;101219.47;5014142;28;928;-57
2022/01/19 08:44:22;;;;;;;;;;;;;;;1.56;49.41;101220.66;5014198;28;888;-57
2022/01/19 08:46:49;;;;;;;;;;;;;;;1.81;49.66;101221.19;5014237;28;1890;-58
2022/01/19 08:49:16;;;;;;;;;;;;;;;1.82;49.16;101223.59;5014058;28;868;-55
2022/01/19 08:51:42;;;;;;;;;;;;;;;1.63;48.65;101212.06;5014390;28;904;-55
2022/01/19 08:54:09;;;;;;;;;;;;;;;1.52;48.39;101221.59;5014012;28;821;-56
2022/01/19 08:56:36;;;;;;;;;;;;;;;1.59;49.20;101227.41;5013853;28;904;-55
2022/01/19 08:59:03;;;;;;;;;;;;;;;1.66;48.50;101218.81;4996549;28;829;-55
2022/01/19 09:01:29;;;;;;;;;;;;;;;1.73;48.23;101220.00;5013601;28;1317;-55
2022/01/19 09:03:56;;;;;;;;;;;;;;;1.80;48.41;101223.09;5013806;28;943;-56
2022/01/19 09:06:23;;;;;;;;;;;;;;;1.95;48.99;101221.13;5013523;28;1938;-57
2022/01/19 09:08:49;;;;;;;;;;;;;;;1.88;49.27;101212.56;5013637;28;924;-55
2022/01/19 09:11:15;;;;;;;;;;;;;;;2.03;48.81;101215.75;5013571;28;951;-57
2022/01/19 09:13:44;;;;;;;;;;;;;;;1.99;47.31;101219.41;5013908;28;876;-57
2022/01/19 09:16:10;;;;;;;;;;;;;;;1.95;47.89;101216.47;5013499;28;906;-56
2022/01/19 09:18:37;;;;;;;;;;;;;;;2.01;47.11;101215.25;5013595;28;888;-57
2022/01/19 09:21:03;;;;;;;;;;;;;;;2.06;47.03;101213.50;5013547;28;840;-57
2022/01/19 09:23:30;;;;;;;;;;;;;;;2.14;47.86;101204.59;5013415;28;899;-57
2022/01/19 09:25:57;;;;;;;;;;;;;;;2.08;46.58;101206.63;5013266;28;1949;-57
2022/01/19 09:28:23;;;;;;;;;;;;;;;2.03;46.94;101190.41;5013352;28;817;-57
2022/01/19 09:30:50;;;;;;;;;;;;;;;2.35;46.42;101191.22;5013681;28;829;-58
2022/01/19 09:33:20;;;;;;;;;;;;;;;2.42;47.00;101186.13;5013295;28;867;-57
2022/01/19 09:36:04;;;;;;;;;;;;;;;2.35;45.12;101177.59;5013530;28;1033;-57
2022/01/19 09:38:32;;;;;;;;;;;;;;;2.48;45.06;101167.69;5012933;28;1179;-57
2022/01/19 09:40:59;;;;;;;;;;;;;;;2.73;46.23;101161.53;5013116;28;916;-57
2022/01/19 09:43:26;;;;;;;;;;;;;;;2.73;45.04;101157.97;5012992;28;884;-58
2022/01/19 09:45:54;;;;;;;;;;;;;;;2.79;44.93;101168.44;5013004;28;1889;-57
2022/01/19 09:48:21;;;;;;;;;;;;;;;2.91;43.65;101167.03;5013008;28;860;-57
2022/01/19 09:50:48;;;;;;;;;;;;;;;2.94;43.34;101164.47;5012896;28;895;-57
2022/01/19 09:53:14;;;;;;;;;;;;;;;2.93;43.46;101157.41;5012933;28;868;-57
2022/01/19 09:55:41;;;;;;;;;;;;;;;2.99;43.59;101139.75;5012855;28;892;-57
2022/01/19 09:58:08;;;;;;;;;;;;;;;2.90;44.07;101155.28;5013175;28;821;-57
2022/01/19 10:00:34;;;;;;;;;;;;;;;2.83;41.90;101152.22;5012557;28;1478;-58
2022/01/19 10:03:20;;;;;;;;;;;;;;;2.75;42.36;101134.72;5012779;28;825;-58
2022/01/19 10:06:07;;;;;;;;;;;;;;;2.96;42.61;101132.19;5012508;28;1978;-58
2022/01/19 10:08:34;;;;;;;;;;;;;;;2.88;43.11;101141.19;5012570;28;950;-58
2022/01/19 10:11:15;;;;;;;;;;;;;;;2.70;41.78;101137.59;5012510;28;865;-58
2022/01/19 10:19:14;;;;;;;;;;;;;;;3.16;41.10;101117.13;5012773;28;658;-58
2022/01/19 10:21:57;;;;;;;;;;;;;;;3.20;41.11;101112.63;5012351;28;940;-58
2022/01/19 10:24:41;;;;;;;;;;;;;;;3.13;40.26;101111.47;5012272;28;817;-58
2022/01/19 10:27:17;;;;;;;;;;;;;;;3.34;40.97;101098.78;5012163;28;1957;-57
2022/01/19 10:29:44;;;;;;;;;;;;;;;3.48;40.45;101080.31;5012295;28;947;-58
2022/01/19 10:32:10;;;;;;;;;;;;;;;3.47;40.10;101083.34;5012198;28;1001;-58
2022/01/19 10:34:45;;;;;;;;;;;;;;;3.46;39.31;101095.44;5012546;28;963;-58
2022/01/19 10:37:12;;;;;;;;;;;;;;;3.39;39.72;101075.97;5012260;28;916;-58
2022/01/19 10:39:46;;;;;;;;;;;;;;;3.54;40.50;101089.16;4994906;28;889;-58
2022/01/19 10:42:18;;;;;;;;;;;;;;;3.55;38.67;101079.81;5011941;28;940;-58
2022/01/19 10:44:46;;;;;;;;;;;;;;;3.42;39.00;101081.59;5012275;28;970;-58
2022/01/19 10:47:36;;;;;;;;;;;;;;;3.66;39.31;101081.06;5011880;28;1947;-58
2022/01/19 10:50:03;;;;;;;;;;;;;;;3.72;38.98;101078.19;5011799;28;907;-58
2022/01/19 11:04:47;;;;;;;;;;;;;;;4.18;36.78;101065.63;4992261;28;727;-58
2022/01/19 11:07:16;;;;;;;;;;;;;;;4.13;38.08;101069.34;4992286;28;1910;-58
2022/01/19 11:09:59;;;;;;;;;;;;;;;4.37;38.02;101071.50;4991977;28;885;-58
2022/01/19 11:12:33;;;;;;;;;;;;;;;4.60;37.67;101071.22;4974641;28;963;-58
2022/01/19 11:14:59;;;;;;;;;;;;;;;4.56;36.64;101057.41;4992444;28;877;-58
2022/01/19 11:17:29;;;;;;;;;;;;;;;4.54;35.08;101058.88;4992050;28;836;-58
2022/01/19 11:19:56;;;;;;;;;;;;;;;4.20;35.99;101064.16;4974617;28;1312;-59
2022/01/19 11:22:34;;;;;;;;;;;;;;;4.09;36.73;101068.41;4992070;28;887;-59
2022/01/19 11:25:12;;;;;;;;;;;;;;;4.08;35.06;101064.88;4974416;28;1194;-59
2022/01/19 11:27:42;;;;;;;;;;;;;;;4.03;35.92;101062.31;4991880;28;1949;-58
2022/01/19 11:30:21;;;;;;;;;;;;;;;4.16;35.10;101055.03;4991951;28;865;-58
2022/01/19 11:33:10;;;;;;;;;;;;;;;4.03;34.66;101045.09;4991809;28;964;-58
2022/01/19 11:35:37;;;;;;;;;;;;;;;4.29;36.01;101040.31;4979395;28;1827;-58
2022/01/19 11:38:23;;;;;;;;;;;;;;;4.42;36.17;101048.63;4991717;28;892;-59
2022/01/19 11:40:51;;;;;;;;;;;;;;;4.28;35.75;101035.16;4991840;28;1042;-58
2022/01/19 11:43:19;;;;;;;;;;;;;;;4.13;35.33;101027.50;4992091;28;789;-58
2022/01/19 11:48:48;;;;;;;;;;;;;;;4.45;35.34;101023.31;4991982;28;809;-58
2022/01/19 11:51:30;;;;;;;;;;;;;;;4.63;35.13;101021.28;4991808;28;972;-59
2022/01/19 11:54:15;;;;;;;;;;;;;;;4.64;34.66;101020.16;4991819;28;958;-58
2022/01/19 11:57:00;;;;;;;;;;;;;;;4.72;34.61;101029.44;4991806;28;809;-58
2022/01/19 11:59:32;;;;;;;;;;;;;;;4.98;34.07;101018.28;4991885;28;896;-59
2022/01/19 12:02:17;;;;;;;;;;;;;;;5.04;34.74;101015.00;4974145;28;1437;-58
2022/01/19 12:04:44;;;;;;;;;;;;;;;4.98;34.00;101016.34;4991906;28;904;-58
2022/01/19 12:07:29;;;;;;;;;;;;;;;5.13;33.95;101014.94;4991581;28;1977;-58
2022/01/19 12:09:57;;;;;;;;;;;;;;;5.26;32.73;101013.03;4991590;28;837;-59
2022/01/19 12:12:27;;;;;;;;;;;;;;;5.18;32.76;101005.69;4974380;28;1296;-59
2022/01/19 12:14:56;;;;;;;;;;;;;;;5.11;32.28;101011.72;4994573;28;952;-59
2022/01/19 12:17:27;;;;;;;;;;;;;;;5.24;33.01;101005.16;4994993;28;888;-59
2022/01/19 12:19:57;;;;;;;;;;;;;;;5.30;32.43;100989.31;4978636;28;956;-58
2022/01/19 12:22:34;;;;;;;;;;;;;;;5.31;31.29;100994.47;4994988;28;905;-59
2022/01/19 12:25:09;;;;;;;;;;;;;;;5.21;32.12;100994.88;4995055;28;913;-58
2022/01/19 12:27:37;;;;;;;;;;;;;;;4.91;32.63;100999.66;4977314;28;1948;-59
2022/01/19 12:30:13;;;;;;;;;;;;;;;4.91;32.67;101005.13;4977279;28;2079;-58
2022/01/19 12:32:44;;;;;;;;;;;;;;;5.45;33.16;100998.84;4994568;28;992;-58
2022/01/19 12:35:12;;;;;;;;;;;;;;;6.11;32.11;100989.69;4994850;28;926;-58
2022/01/19 12:38:10;;;;;;;;;;;;;;;6.06;31.16;100982.50;4994671;28;920;-59
2022/01/19 12:40:56;;;;;;;;;;;;;;;5.74;32.71;100997.88;4970947;28;1359;-58
2022/01/19 12:43:32;;;;;;;;;;;;;;;5.45;32.89;100996.88;4994587;28;981;-59
2022/01/19 12:46:10;;;;;;;;;;;;;;;5.33;32.95;101002.31;4994385;28;1962;-59
2022/01/19 12:48:41;;;;;;;;;;;;;;;5.32;33.47;100996.03;4994502;28;904;-59
2022/01/19 12:51:33;;;;;;;;;;;;;;;5.64;33.85;101001.84;4994416;28;991;-58
2022/01/19 12:54:00;;;;;;;;;;;;;;;5.71;32.89;100988.38;4994455;28;937;-57
2022/01/19 12:56:27;;;;;;;;;;;;;;;5.75;33.28;100996.72;4994598;28;956;-58
2022/01/19 12:59:00;;;;;;;;;;;;;;;6.10;32.61;100996.31;4976974;28;813;-58
2022/01/19 13:01:30;;;;;;;;;;;;;;;6.19;31.92;100987.97;4994388;28;817;-58
2022/01/19 13:03:57;;;;;;;;;;;;;;;6.65;32.31;100983.13;5008629;28;1299;-58
2022/01/19 13:06:25;;;;;;;;;;;;;;;6.89;31.91;100976.75;5013616;28;1977;-58
2022/01/19 13:09:10;;;;;;;;;;;;;;;7.05;31.84;100976.81;5013661;28;944;-58
2022/01/19 13:14:08;;;;;;;;;;;;;;;6.98;31.87;100960.09;5013629;28;844;-59
2022/01/19 13:16:39;;;;;;;;;;;;;;;7.00;31.33;100955.88;5013703;28;859;-58
2022/01/19 13:19:10;;;;;;;;;;;;;;;6.74;31.23;100954.38;5013447;28;881;-59
2022/01/19 13:21:37;;;;;;;;;;;;;;;6.54;31.21;100950.63;5013457;28;887;-58
2022/01/19 13:24:09;;;;;;;;;;;;;;;6.16;31.75;100953.78;5013297;28;805;-57
2022/01/19 13:26:37;;;;;;;;;;;;;;;6.13;31.40;100959.97;5013697;28;1953;-57
2022/01/19 13:29:13;;;;;;;;;;;;;;;5.92;31.73;100963.59;5013731;28;841;-57
2022/01/19 13:31:39;;;;;;;;;;;;;;;5.82;31.94;100955.78;5013257;28;983;-57
2022/01/19 13:37:29;;;;;;;;;;;;;;;5.39;33.22;100959.06;5013290;28;679;-57
2022/01/19 13:39:59;;;;;;;;;;;;;;;5.36;32.90;100954.25;4995758;28;1263;-58
2022/01/19 13:42:40;;;;;;;;;;;;;;;5.29;33.66;100947.38;5013312;28;883;-57
2022/01/19 13:45:27;;;;;;;;;;;;;;;5.26;33.86;100950.00;5012870;28;924;-57
2022/01/19 13:47:57;;;;;;;;;;;;;;;5.42;34.02;100952.88;5012891;28;1293;-57
2022/01/19 13:50:23;;;;;;;;;;;;;;;5.34;33.50;100962.81;5013471;28;883;-58
2022/01/19 13:52:50;;;;;;;;;;;;;;;5.31;34.04;100961.56;5012917;28;860;-57
2022/01/19 13:55:20;;;;;;;;;;;;;;;5.26;34.44;100969.19;5012922;28;867;-57
2022/01/19 13:57:47;;;;;;;;;;;;;;;5.17;33.89;100961.06;5012947;28;873;-57
2022/01/19 14:00:18;;;;;;;;;;;;;;;5.07;34.13;100955.97;5013151;28;863;-57
2022/01/19 14:02:57;;;;;;;;;;;;;;;5.25;34.54;100968.41;5012477;28;1327;-57
2022/01/19 14:05:36;;;;;;;;;;;;;;;5.26;34.12;100963.72;5012342;28;1914;-57
2022/01/19 14:08:03;;;;;;;;;;;;;;;5.06;33.90;100963.41;5012749;28;829;-57
2022/01/19 14:10:42;;;;;;;;;;;;;;;4.82;34.61;100957.81;5012554;28;920;-57
2022/01/19 14:13:27;;;;;;;;;;;;;;;4.65;35.02;100958.75;5012958;28;834;-57
2022/01/19 14:15:57;;;;;;;;;;;;;;;4.48;35.49;100962.41;5012437;28;920;-57
2022/01/19 14:18:24;;;;;;;;;;;;;;;4.41;35.32;100959.41;5012568;28;848;-57
2022/01/19 14:21:08;;;;;;;;;;;;;;;4.36;35.31;100952.19;5012319;28;924;-57
2022/01/19 14:23:35;;;;;;;;;;;;;;;4.34;36.06;100956.41;5012540;28;888;-57
2022/01/19 14:26:11;;;;;;;;;;;;;;;4.25;35.59;100954.53;5012601;28;1886;-57
2022/01/19 14:28:38;;;;;;;;;;;;;;;4.05;35.89;100950.63;5012214;28;956;-57
2022/01/19 14:31:12;;;;;;;;;;;;;;;3.82;35.66;100933.69;5012326;28;864;-57
2022/01/19 14:33:51;;;;;;;;;;;;;;;3.56;35.91;100932.97;5011975;28;931;-57
2022/01/19 14:36:22;;;;;;;;;;;;;;;3.40;36.82;100933.53;5011793;28;845;-57
2022/01/19 14:38:48;;;;;;;;;;;;;;;3.35;37.06;100933.69;5012001;28;976;-57
2022/01/19 14:41:18;;;;;;;;;;;;;;;3.33;37.11;100933.22;5012183;28;829;-57
2022/01/19 14:43:48;;;;;;;;;;;;;;;3.21;36.58;100924.88;5012158;28;825;-57
2022/01/19 14:46:25;;;;;;;;;;;;;;;3.09;36.35;100935.69;4994974;28;1927;-57
2022/01/19 14:48:53;;;;;;;;;;;;;;;2.89;36.52;100935.22;5012175;28;911;-57
2022/01/19 14:51:27;;;;;;;;;;;;;;;2.79;36.82;100932.81;5012178;28;876;-57